Terminal Aerodrome Forecast
Issued by NWS Louisville, KY

Home | Current Version | Previous Version | Text Only | Print | Product List | Glossary On
Versions: 1 2 3 4 5 6 7 8 9 10 11 12 13 14 15 16
000
FTUS43 KLMK 272300
TAFLEX
TAF
KLEX 272325Z 2800/2824 28006KT P6SM SCT025 BKN040
      TEMPO 2800/2804 BKN025
     FM280500 VRB03KT P6SM SCT025
     FM281100 18006KT P6SM BKN080
     FM281800 19009KT P6SM SCT070 SCT250=

USA.gov is the U.S. government's official web portal to all federal, state and local government web resources and services.